sensor_id;sensor_type;location;lat;lon;timestamp;P1;durP1;ratioP1;P2;durP2;ratioP2
59504;SDS011;45321;53.200;5.814;2022-12-07T00:02:18;3.88;;;1.20;;
59504;SDS011;45321;53.200;5.814;2022-12-07T00:04:44;11.45;;;1.85;;
59504;SDS011;45321;53.200;5.814;2022-12-07T00:07:09;7.90;;;1.73;;
59504;SDS011;45321;53.200;5.814;2022-12-07T00:09:35;5.88;;;1.65;;
59504;SDS011;45321;53.200;5.814;2022-12-07T00:12:01;12.65;;;1.90;;
59504;SDS011;45321;53.200;5.814;2022-12-07T00:14:27;7.25;;;1.75;;
59504;SDS011;45321;53.200;5.814;2022-12-07T00:16:52;13.90;;;5.38;;
59504;SDS011;45321;53.200;5.814;2022-12-07T00:19:18;10.90;;;3.15;;
59504;SDS011;45321;53.200;5.814;2022-12-07T00:21:44;10.45;;;1.58;;
59504;SDS011;45321;53.200;5.814;2022-12-07T00:24:10;9.02;;;1.63;;
59504;SDS011;45321;53.200;5.814;2022-12-07T00:26:38;13.95;;;1.42;;
59504;SDS011;45321;53.200;5.814;2022-12-07T00:29:06;12.80;;;1.42;;
59504;SDS011;45321;53.200;5.814;2022-12-07T00:31:37;6.13;;;1.35;;
59504;SDS011;45321;53.200;5.814;2022-12-07T00:34:06;8.98;;;1.10;;
59504;SDS011;45321;53.200;5.814;2022-12-07T00:36:36;6.47;;;0.80;;
59504;SDS011;45321;53.200;5.814;2022-12-07T00:39:02;5.00;;;0.93;;
59504;SDS011;45321;53.200;5.814;2022-12-07T00:41:28;3.63;;;0.73;;
59504;SDS011;45321;53.200;5.814;2022-12-07T00:43:55;3.90;;;0.65;;
59504;SDS011;45321;53.200;5.814;2022-12-07T00:46:22;4.78;;;0.68;;
59504;SDS011;45321;53.200;5.814;2022-12-07T00:48:49;5.20;;;0.70;;
59504;SDS011;45321;53.200;5.814;2022-12-07T00:51:16;1.92;;;0.70;;
59504;SDS011;45321;53.200;5.814;2022-12-07T00:53:43;5.78;;;1.15;;
59504;SDS011;45321;53.200;5.814;2022-12-07T00:56:11;6.18;;;1.20;;
59504;SDS011;45321;53.200;5.814;2022-12-07T00:58:38;8.30;;;1.10;;
59504;SDS011;45321;53.200;5.814;2022-12-07T01:01:04;4.32;;;0.95;;
59504;SDS011;45321;53.200;5.814;2022-12-07T01:03:32;5.03;;;1.00;;
59504;SDS011;45321;53.200;5.814;2022-12-07T01:05:58;3.78;;;0.88;;
59504;SDS011;45321;53.200;5.814;2022-12-07T01:08:25;4.35;;;1.00;;
59504;SDS011;45321;53.200;5.814;2022-12-07T01:11:02;6.50;;;0.90;;
59504;SDS011;45321;53.200;5.814;2022-12-07T01:13:30;4.03;;;0.80;;
59504;SDS011;45321;53.200;5.814;2022-12-07T01:15:58;6.15;;;1.25;;
59504;SDS011;45321;53.200;5.814;2022-12-07T01:18:31;7.32;;;1.20;;
59504;SDS011;45321;53.200;5.814;2022-12-07T01:21:03;8.48;;;1.17;;
59504;SDS011;45321;53.200;5.814;2022-12-07T01:23:31;7.80;;;1.10;;
59504;SDS011;45321;53.200;5.814;2022-12-07T01:25:59;8.77;;;1.00;;
59504;SDS011;45321;53.200;5.814;2022-12-07T01:28:27;7.78;;;1.13;;
59504;SDS011;45321;53.200;5.814;2022-12-07T01:30:59;11.07;;;1.20;;
59504;SDS011;45321;53.200;5.814;2022-12-07T01:33:29;8.55;;;0.90;;
59504;SDS011;45321;53.200;5.814;2022-12-07T01:36:04;12.18;;;1.15;;
59504;SDS011;45321;53.200;5.814;2022-12-07T01:38:31;6.75;;;0.82;;
59504;SDS011;45321;53.200;5.814;2022-12-07T01:40:58;7.22;;;1.38;;
59504;SDS011;45321;53.200;5.814;2022-12-07T01:43:26;8.73;;;1.40;;
59504;SDS011;45321;53.200;5.814;2022-12-07T01:45:54;7.13;;;1.25;;
59504;SDS011;45321;53.200;5.814;2022-12-07T01:48:22;6.53;;;1.23;;
59504;SDS011;45321;53.200;5.814;2022-12-07T01:51:08;12.98;;;1.90;;
59504;SDS011;45321;53.200;5.814;2022-12-07T01:53:38;11.63;;;1.15;;
59504;SDS011;45321;53.200;5.814;2022-12-07T01:56:08;11.55;;;1.52;;
59504;SDS011;45321;53.200;5.814;2022-12-07T01:58:40;9.13;;;1.50;;
59504;SDS011;45321;53.200;5.814;2022-12-07T02:01:06;11.25;;;1.48;;
59504;SDS011;45321;53.200;5.814;2022-12-07T02:03:34;5.78;;;1.13;;
59504;SDS011;45321;53.200;5.814;2022-12-07T02:06:04;13.27;;;1.45;;
59504;SDS011;45321;53.200;5.814;2022-12-07T02:08:31;8.38;;;1.25;;
59504;SDS011;45321;53.200;5.814;2022-12-07T02:10:57;9.25;;;1.00;;
59504;SDS011;45321;53.200;5.814;2022-12-07T02:13:26;6.30;;;1.10;;
59504;SDS011;45321;53.200;5.814;2022-12-07T02:21:17;9.57;;;2.08;;
59504;SDS011;45321;53.200;5.814;2022-12-07T02:31:56;13.65;;;1.45;;
59504;SDS011;45321;53.200;5.814;2022-12-07T02:34:48;12.60;;;1.73;;
59504;SDS011;45321;53.200;5.814;2022-12-07T02:37:34;12.75;;;2.25;;
59504;SDS011;45321;53.200;5.814;2022-12-07T02:40:28;9.38;;;1.38;;
59504;SDS011;45321;53.200;5.814;2022-12-07T02:45:41;9.65;;;1.38;;
59504;SDS011;45321;53.200;5.814;2022-12-07T02:48:09;8.43;;;1.08;;
59504;SDS011;45321;53.200;5.814;2022-12-07T02:50:48;8.68;;;1.10;;
59504;SDS011;45321;53.200;5.814;2022-12-07T03:18:23;8.43;;;1.15;;
59504;SDS011;45321;53.200;5.814;2022-12-07T03:20:53;12.43;;;1.02;;
59504;SDS011;45321;53.200;5.814;2022-12-07T03:23:22;7.15;;;0.85;;
59504;SDS011;45321;53.200;5.814;2022-12-07T03:25:52;5.22;;;0.70;;
59504;SDS011;45321;53.200;5.814;2022-12-07T03:28:22;12.13;;;1.13;;
59504;SDS011;45321;53.200;5.814;2022-12-07T03:31:02;4.65;;;0.90;;
59504;SDS011;45321;53.200;5.814;2022-12-07T03:33:40;4.75;;;0.98;;
59504;SDS011;45321;53.200;5.814;2022-12-07T03:37:17;5.78;;;0.60;;
59504;SDS011;45321;53.200;5.814;2022-12-07T03:41:46;4.22;;;0.63;;
59504;SDS011;45321;53.200;5.814;2022-12-07T03:44:12;4.45;;;0.52;;
59504;SDS011;45321;53.200;5.814;2022-12-07T03:46:44;5.63;;;0.70;;
59504;SDS011;45321;53.200;5.814;2022-12-07T03:49:41;8.75;;;1.33;;
59504;SDS011;45321;53.200;5.814;2022-12-07T03:52:21;10.85;;;1.33;;
59504;SDS011;45321;53.200;5.814;2022-12-07T03:57:53;6.13;;;0.73;;
59504;SDS011;45321;53.200;5.814;2022-12-07T04:00:22;5.63;;;0.90;;
59504;SDS011;45321;53.200;5.814;2022-12-07T04:02:50;7.35;;;0.70;;
59504;SDS011;45321;53.200;5.814;2022-12-07T04:05:20;4.85;;;0.65;;
59504;SDS011;45321;53.200;5.814;2022-12-07T04:07:45;5.45;;;0.80;;
59504;SDS011;45321;53.200;5.814;2022-12-07T04:10:11;9.13;;;1.08;;
59504;SDS011;45321;53.200;5.814;2022-12-07T04:12:37;7.25;;;0.80;;
59504;SDS011;45321;53.200;5.814;2022-12-07T04:15:03;7.13;;;1.23;;
59504;SDS011;45321;53.200;5.814;2022-12-07T04:17:30;5.72;;;0.73;;
59504;SDS011;45321;53.200;5.814;2022-12-07T04:19:55;8.02;;;1.13;;
59504;SDS011;45321;53.200;5.814;2022-12-07T04:22:21;6.57;;;1.30;;
59504;SDS011;45321;53.200;5.814;2022-12-07T04:24:47;9.43;;;1.35;;
59504;SDS011;45321;53.200;5.814;2022-12-07T04:27:12;8.13;;;0.93;;
59504;SDS011;45321;53.200;5.814;2022-12-07T04:29:38;7.85;;;2.05;;
59504;SDS011;45321;53.200;5.814;2022-12-07T04:32:04;7.80;;;1.10;;
59504;SDS011;45321;53.200;5.814;2022-12-07T04:34:30;8.32;;;1.17;;
59504;SDS011;45321;53.200;5.814;2022-12-07T04:36:55;11.00;;;1.45;;
59504;SDS011;45321;53.200;5.814;2022-12-07T04:39:22;10.52;;;1.25;;
59504;SDS011;45321;53.200;5.814;2022-12-07T04:41:54;5.13;;;1.00;;
59504;SDS011;45321;53.200;5.814;2022-12-07T04:44:20;7.22;;;1.40;;
59504;SDS011;45321;53.200;5.814;2022-12-07T04:46:47;7.65;;;1.02;;
59504;SDS011;45321;53.200;5.814;2022-12-07T04:49:13;4.95;;;0.80;;
59504;SDS011;45321;53.200;5.814;2022-12-07T04:51:40;6.40;;;0.82;;
59504;SDS011;45321;53.200;5.814;2022-12-07T04:54:07;11.15;;;1.77;;
59504;SDS011;45321;53.200;5.814;2022-12-07T04:56:33;6.18;;;1.48;;
59504;SDS011;45321;53.200;5.814;2022-12-07T04:59:00;7.72;;;1.38;;
59504;SDS011;45321;53.200;5.814;2022-12-07T05:01:26;6.05;;;0.85;;
59504;SDS011;45321;53.200;5.814;2022-12-07T05:03:52;7.75;;;1.23;;
59504;SDS011;45321;53.200;5.814;2022-12-07T05:06:18;9.93;;;1.27;;
59504;SDS011;45321;53.200;5.814;2022-12-07T05:08:44;7.97;;;0.90;;
59504;SDS011;45321;53.200;5.814;2022-12-07T05:11:10;4.47;;;0.90;;
59504;SDS011;45321;53.200;5.814;2022-12-07T05:13:57;11.95;;;1.00;;
59504;SDS011;45321;53.200;5.814;2022-12-07T05:16:23;9.27;;;2.42;;
59504;SDS011;45321;53.200;5.814;2022-12-07T05:18:49;8.10;;;1.25;;
59504;SDS011;45321;53.200;5.814;2022-12-07T05:21:15;4.10;;;0.75;;
59504;SDS011;45321;53.200;5.814;2022-12-07T05:23:40;10.55;;;1.63;;
59504;SDS011;45321;53.200;5.814;2022-12-07T05:26:06;9.80;;;1.40;;
59504;SDS011;45321;53.200;5.814;2022-12-07T05:28:32;5.22;;;0.80;;
59504;SDS011;45321;53.200;5.814;2022-12-07T05:30:57;21.08;;;1.83;;
59504;SDS011;45321;53.200;5.814;2022-12-07T05:33:23;5.90;;;1.60;;
59504;SDS011;45321;53.200;5.814;2022-12-07T05:35:49;12.90;;;1.50;;
59504;SDS011;45321;53.200;5.814;2022-12-07T05:38:14;8.50;;;0.80;;
59504;SDS011;45321;53.200;5.814;2022-12-07T05:40:40;7.90;;;1.90;;
59504;SDS011;45321;53.200;5.814;2022-12-07T05:43:06;8.70;;;1.83;;
59504;SDS011;45321;53.200;5.814;2022-12-07T05:45:32;13.30;;;1.58;;
59504;SDS011;45321;53.200;5.814;2022-12-07T05:47:57;7.05;;;1.45;;
59504;SDS011;45321;53.200;5.814;2022-12-07T05:50:23;9.27;;;1.20;;
59504;SDS011;45321;53.200;5.814;2022-12-07T05:52:49;7.50;;;1.00;;
59504;SDS011;45321;53.200;5.814;2022-12-07T05:55:15;7.72;;;1.60;;
59504;SDS011;45321;53.200;5.814;2022-12-07T05:57:40;9.10;;;1.10;;
59504;SDS011;45321;53.200;5.814;2022-12-07T06:00:26;12.82;;;1.63;;
59504;SDS011;45321;53.200;5.814;2022-12-07T06:02:52;14.40;;;1.70;;
59504;SDS011;45321;53.200;5.814;2022-12-07T06:05:18;9.65;;;1.35;;
59504;SDS011;45321;53.200;5.814;2022-12-07T06:07:43;7.50;;;1.40;;
59504;SDS011;45321;53.200;5.814;2022-12-07T06:10:09;14.40;;;2.63;;
59504;SDS011;45321;53.200;5.814;2022-12-07T06:12:35;9.85;;;1.52;;
59504;SDS011;45321;53.200;5.814;2022-12-07T06:15:03;10.27;;;1.40;;
59504;SDS011;45321;53.200;5.814;2022-12-07T06:17:29;9.00;;;1.83;;
59504;SDS011;45321;53.200;5.814;2022-12-07T06:19:55;14.52;;;2.13;;
59504;SDS011;45321;53.200;5.814;2022-12-07T06:22:20;11.80;;;2.35;;
59504;SDS011;45321;53.200;5.814;2022-12-07T06:24:46;12.55;;;1.92;;
59504;SDS011;45321;53.200;5.814;2022-12-07T06:27:12;9.18;;;2.15;;
59504;SDS011;45321;53.200;5.814;2022-12-07T06:29:38;10.95;;;1.60;;
59504;SDS011;45321;53.200;5.814;2022-12-07T06:32:03;12.73;;;2.03;;
59504;SDS011;45321;53.200;5.814;2022-12-07T06:34:30;9.90;;;1.25;;
59504;SDS011;45321;53.200;5.814;2022-12-07T06:36:55;11.82;;;2.30;;
59504;SDS011;45321;53.200;5.814;2022-12-07T06:39:22;10.73;;;1.52;;
59504;SDS011;45321;53.200;5.814;2022-12-07T06:41:50;18.65;;;2.25;;
59504;SDS011;45321;53.200;5.814;2022-12-07T06:44:19;15.48;;;2.13;;
59504;SDS011;45321;53.200;5.814;2022-12-07T06:46:45;6.72;;;1.60;;
59504;SDS011;45321;53.200;5.814;2022-12-07T06:49:11;10.95;;;2.05;;
59504;SDS011;45321;53.200;5.814;2022-12-07T06:51:37;6.10;;;1.20;;
59504;SDS011;45321;53.200;5.814;2022-12-07T06:54:06;7.72;;;1.13;;
59504;SDS011;45321;53.200;5.814;2022-12-07T06:56:33;8.45;;;1.30;;
59504;SDS011;45321;53.200;5.814;2022-12-07T06:58:59;7.32;;;1.30;;
59504;SDS011;45321;53.200;5.814;2022-12-07T07:01:24;9.38;;;1.65;;
59504;SDS011;45321;53.200;5.814;2022-12-07T07:03:50;8.23;;;1.10;;
59504;SDS011;45321;53.200;5.814;2022-12-07T07:06:16;10.85;;;1.77;;
59504;SDS011;45321;53.200;5.814;2022-12-07T07:08:42;5.75;;;1.65;;
59504;SDS011;45321;53.200;5.814;2022-12-07T07:11:08;12.40;;;2.25;;
59504;SDS011;45321;53.200;5.814;2022-12-07T07:13:34;11.30;;;1.20;;
59504;SDS011;45321;53.200;5.814;2022-12-07T07:16:00;7.90;;;1.48;;
59504;SDS011;45321;53.200;5.814;2022-12-07T07:18:26;11.05;;;1.40;;
59504;SDS011;45321;53.200;5.814;2022-12-07T07:20:52;10.73;;;1.30;;
59504;SDS011;45321;53.200;5.814;2022-12-07T07:23:18;9.18;;;1.83;;
59504;SDS011;45321;53.200;5.814;2022-12-07T07:25:45;13.55;;;2.00;;
59504;SDS011;45321;53.200;5.814;2022-12-07T07:28:11;9.23;;;1.40;;
59504;SDS011;45321;53.200;5.814;2022-12-07T07:30:37;6.32;;;1.35;;
59504;SDS011;45321;53.200;5.814;2022-12-07T07:33:03;9.02;;;1.27;;
59504;SDS011;45321;53.200;5.814;2022-12-07T07:35:31;7.50;;;0.98;;
59504;SDS011;45321;53.200;5.814;2022-12-07T07:37:57;8.80;;;1.27;;
59504;SDS011;45321;53.200;5.814;2022-12-07T07:40:23;14.52;;;1.88;;
59504;SDS011;45321;53.200;5.814;2022-12-07T07:42:50;12.55;;;1.60;;
59504;SDS011;45321;53.200;5.814;2022-12-07T07:45:17;14.77;;;1.60;;
59504;SDS011;45321;53.200;5.814;2022-12-07T07:47:44;11.40;;;1.85;;
59504;SDS011;45321;53.200;5.814;2022-12-07T07:50:09;9.63;;;1.50;;
59504;SDS011;45321;53.200;5.814;2022-12-07T07:52:36;11.30;;;1.65;;
59504;SDS011;45321;53.200;5.814;2022-12-07T07:55:02;9.38;;;1.13;;
59504;SDS011;45321;53.200;5.814;2022-12-07T07:57:28;9.15;;;2.03;;
59504;SDS011;45321;53.200;5.814;2022-12-07T07:59:53;12.32;;;1.98;;
59504;SDS011;45321;53.200;5.814;2022-12-07T08:02:20;10.35;;;2.00;;
59504;SDS011;45321;53.200;5.814;2022-12-07T08:04:46;12.65;;;2.35;;
59504;SDS011;45321;53.200;5.814;2022-12-07T08:07:13;11.32;;;1.92;;
59504;SDS011;45321;53.200;5.814;2022-12-07T08:09:39;8.18;;;1.58;;
59504;SDS011;45321;53.200;5.814;2022-12-07T08:12:05;14.23;;;2.40;;
59504;SDS011;45321;53.200;5.814;2022-12-07T08:14:31;11.82;;;1.80;;
59504;SDS011;45321;53.200;5.814;2022-12-07T08:16:57;5.78;;;1.30;;
59504;SDS011;45321;53.200;5.814;2022-12-07T08:19:29;10.73;;;1.30;;
59504;SDS011;45321;53.200;5.814;2022-12-07T08:22:10;5.53;;;0.90;;
59504;SDS011;45321;53.200;5.814;2022-12-07T08:24:36;9.10;;;0.85;;
59504;SDS011;45321;53.200;5.814;2022-12-07T08:27:02;4.32;;;0.77;;
59504;SDS011;45321;53.200;5.814;2022-12-07T08:29:28;4.28;;;1.02;;
59504;SDS011;45321;53.200;5.814;2022-12-07T08:31:54;4.78;;;0.98;;
59504;SDS011;45321;53.200;5.814;2022-12-07T08:34:20;6.18;;;1.00;;
59504;SDS011;45321;53.200;5.814;2022-12-07T08:36:48;7.88;;;1.13;;
59504;SDS011;45321;53.200;5.814;2022-12-07T08:39:14;5.00;;;0.90;;
59504;SDS011;45321;53.200;5.814;2022-12-07T08:41:40;5.38;;;1.25;;
59504;SDS011;45321;53.200;5.814;2022-12-07T08:44:06;7.22;;;1.40;;
59504;SDS011;45321;53.200;5.814;2022-12-07T08:51:38;9.25;;;1.85;;
59504;SDS011;45321;53.200;5.814;2022-12-07T08:54:05;9.02;;;1.52;;
59504;SDS011;45321;53.200;5.814;2022-12-07T08:56:37;12.18;;;2.00;;
59504;SDS011;45321;53.200;5.814;2022-12-07T08:59:04;7.50;;;1.75;;
59504;SDS011;45321;53.200;5.814;2022-12-07T09:01:31;13.30;;;2.35;;
59504;SDS011;45321;53.200;5.814;2022-12-07T09:03:57;6.82;;;1.08;;
59504;SDS011;45321;53.200;5.814;2022-12-07T09:06:23;4.63;;;1.40;;
59504;SDS011;45321;53.200;5.814;2022-12-07T09:08:50;5.65;;;1.83;;
59504;SDS011;45321;53.200;5.814;2022-12-07T09:11:20;6.43;;;2.58;;
59504;SDS011;45321;53.200;5.814;2022-12-07T09:13:45;7.95;;;2.55;;
59504;SDS011;45321;53.200;5.814;2022-12-07T09:16:11;10.65;;;2.92;;
59504;SDS011;45321;53.200;5.814;2022-12-07T09:18:37;8.00;;;2.03;;
59504;SDS011;45321;53.200;5.814;2022-12-07T09:21:03;6.68;;;2.03;;
59504;SDS011;45321;53.200;5.814;2022-12-07T09:23:29;7.30;;;1.55;;
59504;SDS011;45321;53.200;5.814;2022-12-07T09:25:58;7.55;;;1.30;;
59504;SDS011;45321;53.200;5.814;2022-12-07T09:28:25;14.40;;;1.90;;
59504;SDS011;45321;53.200;5.814;2022-12-07T09:30:51;8.98;;;2.05;;
59504;SDS011;45321;53.200;5.814;2022-12-07T09:33:16;9.27;;;1.98;;
59504;SDS011;45321;53.200;5.814;2022-12-07T09:35:46;10.63;;;1.98;;
59504;SDS011;45321;53.200;5.814;2022-12-07T09:38:13;12.07;;;1.77;;
59504;SDS011;45321;53.200;5.814;2022-12-07T09:40:39;11.95;;;2.00;;
59504;SDS011;45321;53.200;5.814;2022-12-07T09:43:10;10.93;;;2.10;;
59504;SDS011;45321;53.200;5.814;2022-12-07T09:45:48;6.90;;;1.70;;
59504;SDS011;45321;53.200;5.814;2022-12-07T09:48:21;12.32;;;1.35;;
59504;SDS011;45321;53.200;5.814;2022-12-07T09:51:14;6.72;;;1.17;;
59504;SDS011;45321;53.200;5.814;2022-12-07T09:53:43;8.38;;;1.42;;
59504;SDS011;45321;53.200;5.814;2022-12-07T09:56:13;7.85;;;1.67;;
59504;SDS011;45321;53.200;5.814;2022-12-07T09:58:40;11.48;;;1.80;;
59504;SDS011;45321;53.200;5.814;2022-12-07T10:03:34;6.18;;;1.48;;
59504;SDS011;45321;53.200;5.814;2022-12-07T10:06:03;8.73;;;1.42;;
59504;SDS011;45321;53.200;5.814;2022-12-07T10:08:30;6.95;;;1.20;;
59504;SDS011;45321;53.200;5.814;2022-12-07T10:10:57;7.45;;;1.30;;
59504;SDS011;45321;53.200;5.814;2022-12-07T10:13:34;4.82;;;1.30;;
59504;SDS011;45321;53.200;5.814;2022-12-07T10:19:26;7.05;;;1.55;;
59504;SDS011;45321;53.200;5.814;2022-12-07T10:22:00;5.75;;;0.93;;
59504;SDS011;45321;53.200;5.814;2022-12-07T10:26:55;7.22;;;0.80;;
59504;SDS011;45321;53.200;5.814;2022-12-07T10:29:23;6.80;;;1.27;;
59504;SDS011;45321;53.200;5.814;2022-12-07T10:31:53;4.70;;;0.80;;
59504;SDS011;45321;53.200;5.814;2022-12-07T10:34:25;4.03;;;0.70;;
59504;SDS011;45321;53.200;5.814;2022-12-07T10:36:54;8.30;;;1.10;;
59504;SDS011;45321;53.200;5.814;2022-12-07T10:42:09;6.05;;;1.10;;
59504;SDS011;45321;53.200;5.814;2022-12-07T10:44:40;4.88;;;1.08;;
59504;SDS011;45321;53.200;5.814;2022-12-07T10:55:27;4.78;;;1.00;;
59504;SDS011;45321;53.200;5.814;2022-12-07T11:06:10;5.90;;;1.25;;
59504;SDS011;45321;53.200;5.814;2022-12-07T11:08:54;10.48;;;1.70;;
59504;SDS011;45321;53.200;5.814;2022-12-07T11:17:14;7.70;;;1.42;;
59504;SDS011;45321;53.200;5.814;2022-12-07T11:23:17;7.18;;;1.77;;
59504;SDS011;45321;53.200;5.814;2022-12-07T11:26:04;4.82;;;1.17;;
59504;SDS011;45321;53.200;5.814;2022-12-07T11:28:57;7.28;;;1.52;;
59504;SDS011;45321;53.200;5.814;2022-12-07T11:34:26;12.20;;;1.50;;
59504;SDS011;45321;53.200;5.814;2022-12-07T11:37:02;9.13;;;1.30;;
59504;SDS011;45321;53.200;5.814;2022-12-07T11:39:39;3.97;;;1.08;;
59504;SDS011;45321;53.200;5.814;2022-12-07T11:42:22;7.38;;;0.98;;
59504;SDS011;45321;53.200;5.814;2022-12-07T11:45:25;2.92;;;0.70;;
59504;SDS011;45321;53.200;5.814;2022-12-07T11:47:53;6.72;;;1.45;;
59504;SDS011;45321;53.200;5.814;2022-12-07T11:52:53;3.47;;;0.80;;
59504;SDS011;45321;53.200;5.814;2022-12-07T11:56:01;7.72;;;1.00;;
59504;SDS011;45321;53.200;5.814;2022-12-07T11:58:23;4.40;;;0.93;;
59504;SDS011;45321;53.200;5.814;2022-12-07T12:01:01;6.32;;;0.95;;
59504;SDS011;45321;53.200;5.814;2022-12-07T12:03:34;4.18;;;0.80;;
59504;SDS011;45321;53.200;5.814;2022-12-07T12:06:05;6.65;;;1.40;;
59504;SDS011;45321;53.200;5.814;2022-12-07T12:08:55;5.57;;;1.20;;
59504;SDS011;45321;53.200;5.814;2022-12-07T12:20:01;10.50;;;2.80;;
59504;SDS011;45321;53.200;5.814;2022-12-07T12:22:52;11.77;;;2.38;;
59504;SDS011;45321;53.200;5.814;2022-12-07T12:25:52;9.30;;;1.67;;
59504;SDS011;45321;53.200;5.814;2022-12-07T12:28:24;11.27;;;2.65;;
59504;SDS011;45321;53.200;5.814;2022-12-07T12:33:49;4.13;;;1.08;;
59504;SDS011;45321;53.200;5.814;2022-12-07T12:36:18;4.38;;;0.90;;
59504;SDS011;45321;53.200;5.814;2022-12-07T12:47:00;8.77;;;1.23;;
59504;SDS011;45321;53.200;5.814;2022-12-07T12:49:34;8.27;;;1.10;;
59504;SDS011;45321;53.200;5.814;2022-12-07T12:54:58;9.93;;;1.95;;
59504;SDS011;45321;53.200;5.814;2022-12-07T12:57:46;8.75;;;1.30;;
59504;SDS011;45321;53.200;5.814;2022-12-07T13:02:49;6.95;;;1.35;;
59504;SDS011;45321;53.200;5.814;2022-12-07T13:05:21;4.35;;;1.13;;
59504;SDS011;45321;53.200;5.814;2022-12-07T13:07:57;6.03;;;1.48;;
59504;SDS011;45321;53.200;5.814;2022-12-07T13:20:42;7.35;;;1.60;;
59504;SDS011;45321;53.200;5.814;2022-12-07T13:23:13;6.28;;;1.17;;
59504;SDS011;45321;53.200;5.814;2022-12-07T13:25:49;2.45;;;1.00;;
59504;SDS011;45321;53.200;5.814;2022-12-07T13:28:21;3.88;;;0.85;;
59504;SDS011;45321;53.200;5.814;2022-12-07T13:30:59;3.30;;;1.10;;
59504;SDS011;45321;53.200;5.814;2022-12-07T13:33:35;4.40;;;0.95;;
59504;SDS011;45321;53.200;5.814;2022-12-07T13:36:01;3.42;;;0.88;;
59504;SDS011;45321;53.200;5.814;2022-12-07T13:38:34;4.28;;;0.70;;
59504;SDS011;45321;53.200;5.814;2022-12-07T13:41:12;5.10;;;0.52;;
59504;SDS011;45321;53.200;5.814;2022-12-07T13:43:43;3.90;;;0.70;;
59504;SDS011;45321;53.200;5.814;2022-12-07T13:46:11;2.70;;;0.63;;
59504;SDS011;45321;53.200;5.814;2022-12-07T13:48:46;4.93;;;1.35;;
59504;SDS011;45321;53.200;5.814;2022-12-07T13:51:17;3.55;;;0.88;;
59504;SDS011;45321;53.200;5.814;2022-12-07T13:53:46;5.65;;;1.20;;
59504;SDS011;45321;53.200;5.814;2022-12-07T13:56:26;4.22;;;0.90;;
59504;SDS011;45321;53.200;5.814;2022-12-07T13:58:59;2.78;;;0.90;;
59504;SDS011;45321;53.200;5.814;2022-12-07T14:01:30;3.03;;;1.08;;
59504;SDS011;45321;53.200;5.814;2022-12-07T14:04:15;2.83;;;0.98;;
59504;SDS011;45321;53.200;5.814;2022-12-07T14:06:51;3.75;;;0.73;;
59504;SDS011;45321;53.200;5.814;2022-12-07T14:09:18;2.83;;;0.90;;
59504;SDS011;45321;53.200;5.814;2022-12-07T14:11:49;3.78;;;1.27;;
59504;SDS011;45321;53.200;5.814;2022-12-07T14:14:18;6.07;;;3.33;;
59504;SDS011;45321;53.200;5.814;2022-12-07T14:16:58;15.80;;;11.32;;
59504;SDS011;45321;53.200;5.814;2022-12-07T14:22:34;8.88;;;6.13;;
59504;SDS011;45321;53.200;5.814;2022-12-07T14:25:02;9.45;;;5.22;;
59504;SDS011;45321;53.200;5.814;2022-12-07T14:27:37;6.63;;;4.47;;
59504;SDS011;45321;53.200;5.814;2022-12-07T14:30:04;9.48;;;5.10;;
59504;SDS011;45321;53.200;5.814;2022-12-07T14:32:30;12.27;;;3.30;;
59504;SDS011;45321;53.200;5.814;2022-12-07T14:37:28;6.43;;;2.33;;
59504;SDS011;45321;53.200;5.814;2022-12-07T14:39:55;6.25;;;3.00;;
59504;SDS011;45321;53.200;5.814;2022-12-07T14:42:22;7.68;;;2.10;;
59504;SDS011;45321;53.200;5.814;2022-12-07T14:44:50;4.97;;;1.70;;
59504;SDS011;45321;53.200;5.814;2022-12-07T14:47:15;8.30;;;3.05;;
59504;SDS011;45321;53.200;5.814;2022-12-07T14:49:41;10.45;;;2.90;;
59504;SDS011;45321;53.200;5.814;2022-12-07T14:52:09;7.93;;;4.10;;
59504;SDS011;45321;53.200;5.814;2022-12-07T14:54:55;6.15;;;2.08;;
59504;SDS011;45321;53.200;5.814;2022-12-07T14:57:21;5.70;;;1.90;;
59504;SDS011;45321;53.200;5.814;2022-12-07T14:59:47;5.97;;;1.73;;
59504;SDS011;45321;53.200;5.814;2022-12-07T15:02:14;9.95;;;2.60;;
59504;SDS011;45321;53.200;5.814;2022-12-07T15:04:40;10.15;;;2.95;;
59504;SDS011;45321;53.200;5.814;2022-12-07T15:07:09;7.88;;;1.48;;
59504;SDS011;45321;53.200;5.814;2022-12-07T15:09:46;3.08;;;1.10;;
59504;SDS011;45321;53.200;5.814;2022-12-07T15:12:12;4.90;;;1.02;;
59504;SDS011;45321;53.200;5.814;2022-12-07T15:14:38;6.30;;;1.23;;
59504;SDS011;45321;53.200;5.814;2022-12-07T15:17:03;2.83;;;1.10;;
59504;SDS011;45321;53.200;5.814;2022-12-07T15:19:29;6.35;;;1.60;;
59504;SDS011;45321;53.200;5.814;2022-12-07T15:21:55;8.00;;;1.20;;
59504;SDS011;45321;53.200;5.814;2022-12-07T15:24:22;2.63;;;0.70;;
59504;SDS011;45321;53.200;5.814;2022-12-07T15:26:49;4.65;;;0.70;;
59504;SDS011;45321;53.200;5.814;2022-12-07T15:29:14;2.58;;;0.60;;
59504;SDS011;45321;53.200;5.814;2022-12-07T15:31:41;4.55;;;1.08;;
59504;SDS011;45321;53.200;5.814;2022-12-07T15:34:07;4.30;;;1.00;;
59504;SDS011;45321;53.200;5.814;2022-12-07T15:36:33;4.60;;;1.13;;
59504;SDS011;45321;53.200;5.814;2022-12-07T15:38:59;3.03;;;1.40;;
59504;SDS011;45321;53.200;5.814;2022-12-07T15:41:26;6.63;;;1.38;;
59504;SDS011;45321;53.200;5.814;2022-12-07T15:43:51;6.95;;;1.40;;
59504;SDS011;45321;53.200;5.814;2022-12-07T15:46:37;5.65;;;1.40;;
59504;SDS011;45321;53.200;5.814;2022-12-07T15:49:14;6.47;;;3.20;;
59504;SDS011;45321;53.200;5.814;2022-12-07T15:51:41;8.48;;;4.65;;
59504;SDS011;45321;53.200;5.814;2022-12-07T15:54:11;6.82;;;3.92;;
59504;SDS011;45321;53.200;5.814;2022-12-07T15:56:42;10.48;;;5.38;;
59504;SDS011;45321;53.200;5.814;2022-12-07T15:59:08;9.50;;;6.75;;
59504;SDS011;45321;53.200;5.814;2022-12-07T16:01:34;11.02;;;7.60;;
59504;SDS011;45321;53.200;5.814;2022-12-07T16:04:00;18.13;;;12.40;;
59504;SDS011;45321;53.200;5.814;2022-12-07T16:06:26;7.30;;;5.30;;
59504;SDS011;45321;53.200;5.814;2022-12-07T16:08:51;6.97;;;2.92;;
59504;SDS011;45321;53.200;5.814;2022-12-07T16:11:17;6.35;;;2.28;;
59504;SDS011;45321;53.200;5.814;2022-12-07T16:13:43;9.20;;;2.85;;
59504;SDS011;45321;53.200;5.814;2022-12-07T16:16:10;5.18;;;2.30;;
59504;SDS011;45321;53.200;5.814;2022-12-07T16:18:38;6.38;;;3.45;;
59504;SDS011;45321;53.200;5.814;2022-12-07T16:21:04;7.60;;;3.90;;
59504;SDS011;45321;53.200;5.814;2022-12-07T16:23:30;7.55;;;3.53;;
59504;SDS011;45321;53.200;5.814;2022-12-07T16:26:03;10.32;;;4.60;;
59504;SDS011;45321;53.200;5.814;2022-12-07T16:28:39;7.70;;;3.03;;
59504;SDS011;45321;53.200;5.814;2022-12-07T16:31:06;11.23;;;3.35;;
59504;SDS011;45321;53.200;5.814;2022-12-07T16:33:37;9.23;;;2.00;;
59504;SDS011;45321;53.200;5.814;2022-12-07T16:36:04;4.47;;;2.15;;
59504;SDS011;45321;53.200;5.814;2022-12-07T16:38:31;9.07;;;2.55;;
59504;SDS011;45321;53.200;5.814;2022-12-07T16:40:57;11.65;;;2.40;;
59504;SDS011;45321;53.200;5.814;2022-12-07T16:43:22;5.72;;;2.58;;
59504;SDS011;45321;53.200;5.814;2022-12-07T16:45:48;7.20;;;3.13;;
59504;SDS011;45321;53.200;5.814;2022-12-07T16:48:15;7.22;;;3.13;;
59504;SDS011;45321;53.200;5.814;2022-12-07T16:50:41;7.82;;;3.17;;
59504;SDS011;45321;53.200;5.814;2022-12-07T16:53:11;8.88;;;3.10;;
59504;SDS011;45321;53.200;5.814;2022-12-07T16:55:38;7.60;;;3.65;;
59504;SDS011;45321;53.200;5.814;2022-12-07T16:58:05;11.45;;;4.40;;
59504;SDS011;45321;53.200;5.814;2022-12-07T17:00:31;8.60;;;3.25;;
59504;SDS011;45321;53.200;5.814;2022-12-07T17:02:57;11.50;;;2.45;;
59504;SDS011;45321;53.200;5.814;2022-12-07T17:05:23;5.18;;;1.65;;
59504;SDS011;45321;53.200;5.814;2022-12-07T17:07:49;10.57;;;1.95;;
59504;SDS011;45321;53.200;5.814;2022-12-07T17:10:15;16.98;;;5.13;;
59504;SDS011;45321;53.200;5.814;2022-12-07T17:12:41;12.68;;;3.50;;